createdAt,value
2017-05-16T00:08:20.978Z,101937.36
2017-05-16T00:27:44.353Z,101928.97
2017-05-16T00:33:23.740Z,101929.77
2017-05-16T00:44:41.589Z,101927.52
2017-05-16T00:47:09.477Z,101928.84
2017-05-16T00:49:37.974Z,101928.20
2017-05-16T00:52:05.690Z,101928.48
2017-05-16T00:54:33.519Z,101929.28
2017-05-16T00:57:01.335Z,101929.56
2017-05-16T00:59:29.061Z,101927.43
2017-05-16T01:01:57.464Z,101921.59
2017-05-16T01:04:25.392Z,101916.73
2017-05-16T01:06:53.663Z,101916.06
2017-05-16T01:09:21.308Z,101916.87
2017-05-16T01:11:49.008Z,101913.88
2017-05-16T01:14:16.572Z,101912.77
2017-05-16T01:16:44.089Z,101914.77
2017-05-16T01:19:11.959Z,101909.67
2017-05-16T01:21:39.856Z,101916.22
2017-05-16T01:24:08.231Z,101917.97
2017-05-16T01:26:44.124Z,101913.59
2017-05-16T01:29:11.952Z,101918.24
2017-05-16T01:31:39.890Z,101921.40
2017-05-16T01:34:07.853Z,101912.81
2017-05-16T01:36:35.877Z,101905.27
2017-05-16T01:39:04.291Z,101905.02
2017-05-16T01:41:31.961Z,101901.08
2017-05-16T01:43:59.995Z,101908.47
2017-05-16T01:46:28.510Z,101906.00
2017-05-16T01:48:56.884Z,101904.39
2017-05-16T01:51:24.661Z,101898.58
2017-05-16T01:53:52.843Z,101892.84
2017-05-16T01:56:20.387Z,101892.59
2017-05-16T01:58:48.225Z,101893.63
2017-05-16T02:01:16.700Z,101901.13
2017-05-16T02:03:44.404Z,101897.70
2017-05-16T02:06:12.583Z,101902.53
2017-05-16T02:08:40.565Z,101902.75
2017-05-16T02:11:08.496Z,101897.13
2017-05-16T02:13:37.517Z,101899.76
2017-05-16T02:16:06.857Z,101894.96
2017-05-16T02:18:34.592Z,101909.84
2017-05-16T02:21:02.603Z,101902.30
2017-05-16T02:23:30.451Z,101907.13
2017-05-16T02:25:58.141Z,101903.41
2017-05-16T02:28:26.229Z,101907.28
2017-05-16T02:30:55.913Z,101903.52
2017-05-16T02:33:25.294Z,101908.78
2017-05-16T02:36:09.799Z,101909.48
2017-05-16T03:16:35.621Z,101930.62
2017-05-16T03:19:22.664Z,101929.05
2017-05-16T03:21:57.731Z,101935.23
2017-05-16T04:46:57.631Z,101953.94
2017-05-16T04:49:25.949Z,101955.07
2017-05-16T04:51:53.619Z,101950.23
2017-05-16T04:54:22.811Z,101953.13
2017-05-16T04:56:50.707Z,101952.92
2017-05-16T04:59:18.712Z,101959.94
2017-05-16T05:01:46.789Z,101957.11
2017-05-16T05:04:14.899Z,101962.50
2017-05-16T05:06:42.471Z,101959.39
2017-05-16T05:09:10.208Z,101967.05
2017-05-16T05:11:37.933Z,101962.70
2017-05-16T05:14:05.447Z,101966.47
2017-05-16T05:16:33.207Z,101966.38
2017-05-16T05:19:00.775Z,101964.78
2017-05-16T05:21:28.427Z,101962.88
2017-05-16T05:23:55.999Z,101966.02
2017-05-16T05:26:23.623Z,101957.75
2017-05-16T05:28:51.397Z,101963.22
2017-05-16T05:31:19.116Z,101970.30
2017-05-16T05:33:46.975Z,101963.30
2017-05-16T05:36:14.458Z,101975.03
2017-05-16T05:38:42.032Z,101975.31
2017-05-16T05:41:09.839Z,101976.44
2017-05-16T05:43:37.456Z,101977.37
2017-05-16T05:46:05.155Z,101979.12
2017-05-16T05:48:33.463Z,101978.23
2017-05-16T05:51:00.934Z,101976.27
2017-05-16T05:53:28.710Z,101980.14
2017-05-16T05:55:56.167Z,101978.92
2017-05-16T05:58:23.979Z,101983.39
2017-05-16T06:00:51.558Z,101987.36
2017-05-16T06:03:19.545Z,101989.19
2017-05-16T06:05:47.035Z,101990.20
2017-05-16T06:08:14.500Z,101994.99
2017-05-16T06:10:42.074Z,101995.34
2017-05-16T06:13:09.654Z,101989.00
2017-05-16T06:15:37.294Z,101990.38
2017-05-16T06:18:04.878Z,101993.58
2017-05-16T06:20:32.587Z,101993.61
2017-05-16T06:23:00.086Z,101988.11
2017-05-16T06:25:27.902Z,101989.70
2017-05-16T06:27:55.824Z,101980.28
2017-05-16T06:30:23.406Z,101977.73
2017-05-16T06:32:50.958Z,101981.06
2017-05-16T06:35:18.738Z,101981.60
2017-05-16T06:37:46.314Z,101987.70
2017-05-16T06:40:14.125Z,101992.69
2017-05-16T06:42:42.457Z,101993.03
2017-05-16T06:45:10.051Z,101986.36
2017-05-16T06:47:38.690Z,101987.19
2017-05-16T06:50:06.178Z,101987.20
2017-05-16T06:52:33.617Z,101979.55
2017-05-16T06:55:01.265Z,101982.86
2017-05-16T06:57:29.149Z,101980.95
2017-05-16T06:59:58.411Z,101982.71
2017-05-16T07:02:26.039Z,101981.84
2017-05-16T07:04:54.034Z,101988.03
2017-05-16T07:07:21.974Z,101984.20
2017-05-16T07:09:49.497Z,101984.75
2017-05-16T07:12:17.151Z,101987.83
2017-05-16T07:14:44.707Z,101984.20
2017-05-16T07:17:12.311Z,101980.80
2017-05-16T07:19:39.783Z,101984.12
2017-05-16T07:22:07.398Z,101985.59
2017-05-16T07:24:35.051Z,101981.95
2017-05-16T07:27:02.654Z,101980.89
2017-05-16T07:29:30.121Z,101984.39
2017-05-16T07:31:57.743Z,101985.53
2017-05-16T07:34:25.202Z,101982.10
2017-05-16T07:36:52.774Z,101981.67
2017-05-16T07:39:20.246Z,101981.85
2017-05-16T07:41:47.706Z,101977.11
2017-05-16T07:44:15.157Z,101970.55
2017-05-16T07:46:42.648Z,101968.69
2017-05-16T07:49:10.111Z,101961.91
2017-05-16T07:51:37.571Z,101956.23
2017-05-16T07:54:05.030Z,101963.86
2017-05-16T07:56:32.472Z,101970.20
2017-05-16T07:58:59.972Z,101967.41
2017-05-16T08:01:27.399Z,101965.73
2017-05-16T08:03:54.834Z,101965.69
2017-05-16T08:06:22.277Z,101964.09
2017-05-16T08:08:49.724Z,101961.97
2017-05-16T08:11:17.214Z,101962.53
2017-05-16T08:13:44.694Z,101961.19
2017-05-16T08:16:12.215Z,101956.38
2017-05-16T08:18:39.663Z,101959.57
2017-05-16T08:21:07.169Z,101955.18
2017-05-16T08:23:34.708Z,101957.53
2017-05-16T08:26:02.185Z,101945.16
2017-05-16T08:28:29.641Z,101939.59
2017-05-16T08:30:57.217Z,101938.27
2017-05-16T08:33:24.819Z,101936.63
2017-05-16T08:35:52.288Z,101944.22
2017-05-16T08:38:19.728Z,101943.66
2017-05-16T08:40:47.201Z,101945.63
2017-05-16T08:43:14.653Z,101940.23
2017-05-16T08:45:42.118Z,101939.53
2017-05-16T08:48:09.577Z,101930.89
2017-05-16T08:50:37.051Z,101931.49
2017-05-16T08:53:04.595Z,101931.95
2017-05-16T08:55:32.042Z,101931.17
2017-05-16T08:57:59.501Z,101932.30
2017-05-16T09:00:26.940Z,101920.95
2017-05-16T09:02:54.430Z,101929.03
2017-05-16T09:05:21.868Z,101927.61
2017-05-16T09:07:49.316Z,101927.47
2017-05-16T09:10:16.758Z,101929.08
2017-05-16T09:12:44.183Z,101927.67
2017-05-16T09:15:12.617Z,101932.08
2017-05-16T09:17:40.041Z,101931.02
2017-05-16T09:20:07.466Z,101935.86
2017-05-16T09:22:34.902Z,101932.84
2017-05-16T09:25:02.337Z,101928.64
2017-05-16T09:27:29.791Z,101927.19
2017-05-16T09:29:57.210Z,101920.19
2017-05-16T09:32:24.662Z,101915.70
2017-05-16T09:34:52.090Z,101921.95
2017-05-16T09:37:19.539Z,101916.09
2017-05-16T09:39:46.986Z,101913.61
2017-05-16T09:42:14.429Z,101913.48
2017-05-16T09:44:41.866Z,101909.36
2017-05-16T09:47:09.289Z,101910.19
2017-05-16T09:49:36.713Z,101911.87
2017-05-16T09:52:04.150Z,101915.23
2017-05-16T09:54:31.579Z,101912.27
2017-05-16T09:56:59.035Z,101908.57
2017-05-16T09:59:26.458Z,101908.95
2017-05-16T10:01:53.879Z,101901.16
2017-05-16T10:04:21.335Z,101899.33
2017-05-16T10:06:48.767Z,101905.23
2017-05-16T10:09:16.221Z,101900.58
2017-05-16T10:11:43.647Z,101892.95
2017-05-16T10:14:11.079Z,101893.38
2017-05-16T10:16:39.216Z,101886.34
2017-05-16T10:19:06.637Z,101883.10
2017-05-16T10:21:34.086Z,101879.44
2017-05-16T10:24:01.510Z,101876.85
2017-05-16T10:26:28.949Z,101879.81
2017-05-16T10:28:56.666Z,101878.73
2017-05-16T10:31:24.159Z,101879.57
2017-05-16T10:33:51.649Z,101878.24
2017-05-16T10:36:20.750Z,101875.52
2017-05-16T10:38:48.210Z,101870.16
2017-05-16T10:41:15.668Z,101871.44
2017-05-16T10:43:43.234Z,101864.78
2017-05-16T10:46:10.803Z,101866.63
2017-05-16T10:48:38.273Z,101867.87
2017-05-16T10:51:05.842Z,101856.50
2017-05-16T10:53:33.271Z,101857.88
2017-05-16T10:56:00.721Z,101849.48
2017-05-16T10:58:28.138Z,101850.83
2017-05-16T11:00:55.590Z,101849.66
2017-05-16T11:03:23.010Z,101847.79
2017-05-16T11:05:50.431Z,101850.14
2017-05-16T11:08:17.873Z,101843.67
2017-05-16T11:10:45.386Z,101845.51
2017-05-16T11:13:12.877Z,101840.05
2017-05-16T11:15:40.315Z,101835.87
2017-05-16T11:18:07.762Z,101829.72
2017-05-16T11:20:35.188Z,101823.74
2017-05-16T11:23:02.611Z,101821.97
2017-05-16T11:25:30.050Z,101814.40
2017-05-16T11:27:58.182Z,101815.91
2017-05-16T11:30:25.647Z,101817.91
2017-05-16T11:32:53.082Z,101817.05
2017-05-16T11:35:20.539Z,101817.11
2017-05-16T11:37:47.962Z,101814.31
2017-05-16T11:40:15.398Z,101800.02
2017-05-16T11:42:42.834Z,101806.66
2017-05-16T11:45:10.262Z,101797.08
2017-05-16T11:47:37.719Z,101791.02
2017-05-16T11:50:05.149Z,101787.97
2017-05-16T11:52:32.585Z,101787.97
2017-05-16T11:55:00.028Z,101785.02
2017-05-16T11:57:27.463Z,101787.84
2017-05-16T11:59:54.907Z,101774.42
2017-05-16T12:02:22.342Z,101771.77
2017-05-16T12:04:49.780Z,101776.67
2017-05-16T12:07:17.208Z,101769.53
2017-05-16T12:09:44.659Z,101768.09
2017-05-16T12:12:12.085Z,101762.77
2017-05-16T12:14:39.518Z,101764.27
2017-05-16T12:17:06.954Z,101762.41
2017-05-16T12:19:34.386Z,101760.76
2017-05-16T12:22:01.827Z,101756.08
2017-05-16T12:24:29.254Z,101751.99
2017-05-16T12:26:56.710Z,101749.02
2017-05-16T12:29:24.142Z,101749.86
2017-05-16T12:31:51.567Z,101746.70
2017-05-16T12:34:19.024Z,101740.36
2017-05-16T12:36:46.447Z,101740.34
2017-05-16T12:39:13.898Z,101735.89
2017-05-16T12:41:41.325Z,101733.61
2017-05-16T12:44:08.779Z,101729.23
2017-05-16T12:46:36.208Z,101733.25
2017-05-16T12:49:03.644Z,101722.52
2017-05-16T12:51:31.090Z,101721.11
2017-05-16T12:53:58.514Z,101726.58
2017-05-16T12:56:25.961Z,101713.16
2017-05-16T12:58:53.388Z,101714.98
2017-05-16T13:01:20.830Z,101719.67
2017-05-16T13:03:48.255Z,101717.27
2017-05-16T13:06:15.683Z,101704.86
2017-05-16T13:08:43.130Z,101703.80
2017-05-16T13:11:10.560Z,101696.97
2017-05-16T13:13:38.001Z,101694.78
2017-05-16T13:16:05.430Z,101693.42
2017-05-16T13:18:32.883Z,101694.69
2017-05-16T13:21:00.310Z,101690.03
2017-05-16T13:23:27.731Z,101683.96
2017-05-16T13:25:55.263Z,101687.13
2017-05-16T13:28:23.706Z,101685.00
2017-05-16T13:30:51.140Z,101683.08
2017-05-16T13:33:20.563Z,101675.72
2017-05-16T13:35:48.009Z,101683.20
2017-05-16T13:38:15.437Z,101683.03
2017-05-16T13:40:42.900Z,101672.80
2017-05-16T13:43:10.330Z,101671.89
2017-05-16T13:45:43.321Z,101675.47
2017-05-16T13:48:10.926Z,101667.09
2017-05-16T13:50:38.371Z,101671.56
2017-05-16T13:53:07.840Z,101671.59
2017-05-16T13:55:35.269Z,101669.84
2017-05-16T13:58:02.702Z,101669.55
2017-05-16T14:00:30.138Z,101666.00
2017-05-16T14:02:57.569Z,101658.52
2017-05-16T14:05:30.315Z,101664.77
2017-05-16T14:07:57.834Z,101656.33
2017-05-16T14:10:25.258Z,101655.48
2017-05-16T14:12:52.794Z,101648.86
2017-05-16T14:15:20.289Z,101646.73
2017-05-16T14:20:57.615Z,101645.02
2017-05-16T14:23:25.179Z,101640.73
2017-05-16T14:25:53.659Z,101630.97
2017-05-16T14:28:21.250Z,101625.69
2017-05-16T14:30:48.788Z,101625.14
2017-05-16T14:33:16.454Z,101627.52
2017-05-16T14:35:44.362Z,101616.92
2017-05-16T14:38:11.813Z,101620.19
2017-05-16T14:40:39.646Z,101619.80
2017-05-16T14:43:08.138Z,101609.66
2017-05-16T14:45:36.636Z,101608.81
2017-05-16T14:48:04.463Z,101607.73
2017-05-16T14:50:36.491Z,101608.36
2017-05-16T14:53:06.035Z,101611.09
2017-05-16T14:55:40.204Z,101606.32
2017-05-16T14:58:15.274Z,101604.22
2017-05-16T15:00:42.983Z,101601.55
2017-05-16T15:03:15.515Z,101601.73
2017-05-16T15:05:47.655Z,101600.63
2017-05-16T15:08:17.776Z,101598.79
2017-05-16T15:10:47.094Z,101598.22
2017-05-16T15:13:17.055Z,101594.68
2017-05-16T15:16:03.192Z,101594.71
2017-05-16T15:18:31.124Z,101598.30
2017-05-16T15:20:58.760Z,101592.96
2017-05-16T15:23:26.515Z,101588.70
2017-05-16T15:25:54.743Z,101588.99
2017-05-16T15:28:22.207Z,101590.73
2017-05-16T15:30:50.577Z,101587.99
2017-05-16T15:33:22.267Z,101586.29
2017-05-16T15:35:53.990Z,101583.80
2017-05-16T15:38:25.098Z,101586.69
2017-05-16T15:40:53.366Z,101587.02
2017-05-16T15:43:24.018Z,101579.56
2017-05-16T15:45:53.883Z,101573.06
2017-05-16T15:48:21.479Z,101576.84
2017-05-16T15:50:48.998Z,101573.45
2017-05-16T15:53:16.567Z,101565.72
2017-05-16T15:55:56.721Z,101565.72
2017-05-16T15:58:24.562Z,101571.38
2017-05-16T16:00:52.440Z,101568.20
2017-05-16T16:03:20.025Z,101568.80
2017-05-16T18:49:50.437Z,1014.91
2017-05-16T18:50:49.819Z,1014.95
2017-05-16T18:51:56.779Z,1014.97
2017-05-16T18:55:48.204Z,1014.97
2017-05-16T18:57:10.759Z,1014.96
2017-05-16T19:03:08.060Z,1014.98
2017-05-16T19:06:32.373Z,1015.06
2017-05-16T19:09:53.206Z,1015.07
2017-05-16T19:15:59.301Z,1015.15
2017-05-16T19:20:15.658Z,1015.12
2017-05-16T19:21:37.264Z,1015.11
2017-05-16T19:28:28.671Z,1015.15
2017-05-16T19:29:32.823Z,1015.17
2017-05-16T19:31:06.349Z,1015.14
2017-05-16T19:32:23.559Z,1015.14
2017-05-16T19:33:52.235Z,1015.20
2017-05-16T19:34:56.695Z,1015.28
2017-05-16T19:36:01.179Z,1015.26
2017-05-16T19:37:05.634Z,1015.17
2017-05-16T19:38:10.065Z,1015.24
2017-05-16T19:39:14.574Z,1015.30
2017-05-16T19:40:19.022Z,1015.26
2017-05-16T19:41:23.519Z,1015.30
2017-05-16T19:42:28.048Z,1015.31
2017-05-16T19:43:32.511Z,1015.30
2017-05-16T19:44:37.007Z,1015.33
2017-05-16T19:45:41.446Z,1015.36
2017-05-16T19:46:45.923Z,1015.36
2017-05-16T19:47:50.400Z,1015.32
2017-05-16T19:48:54.910Z,1015.25
2017-05-16T19:49:59.436Z,1015.32
2017-05-16T19:51:03.942Z,1015.36
2017-05-16T19:52:08.431Z,1015.36
2017-05-16T19:53:12.931Z,1015.32
2017-05-16T19:54:17.421Z,1015.42
2017-05-16T19:55:21.989Z,1015.34
2017-05-16T19:56:26.453Z,1015.38
2017-05-16T19:57:31.004Z,1015.40
2017-05-16T19:58:35.442Z,1015.40
2017-05-16T19:59:39.962Z,1015.34
2017-05-16T20:00:44.459Z,1015.36
2017-05-16T20:01:48.966Z,1015.43
2017-05-16T20:02:53.405Z,1015.39
2017-05-16T20:03:57.963Z,1015.41
2017-05-16T20:05:02.455Z,1015.40
2017-05-16T20:06:07.061Z,1015.38
2017-05-16T20:07:11.503Z,1015.40
2017-05-16T20:08:15.991Z,1015.39
2017-05-16T20:09:20.467Z,1015.39
2017-05-16T20:10:25.068Z,1015.40
2017-05-16T20:11:29.529Z,1015.38
2017-05-16T20:12:34.008Z,1015.47
2017-05-16T20:13:38.426Z,1015.43
2017-05-16T20:14:42.894Z,1015.39
2017-05-16T20:15:47.313Z,1015.48
2017-05-16T20:16:51.817Z,1015.38
2017-05-16T20:17:56.259Z,1015.40
2017-05-16T20:19:00.715Z,1015.44
2017-05-16T20:20:05.194Z,1015.37
2017-05-16T20:21:09.634Z,1015.40
2017-05-16T20:22:14.449Z,1015.42
2017-05-16T20:23:20.016Z,1015.40
2017-05-16T20:24:25.517Z,1015.43
2017-05-16T20:25:30.047Z,1015.42
2017-05-16T20:26:34.524Z,1015.43
2017-05-16T20:27:39.018Z,1015.39
2017-05-16T20:28:43.518Z,1015.36
2017-05-16T20:29:58.520Z,1015.39
2017-05-16T20:31:02.983Z,1015.34
2017-05-16T20:32:07.593Z,1015.42
2017-05-16T20:36:46.211Z,1016.22
2017-05-16T20:37:50.669Z,1016.19
2017-05-16T20:38:22.504Z,1015.37
2017-05-16T20:39:26.993Z,1015.42
2017-05-16T20:40:31.900Z,1015.34
